createdAt,value
2018-04-29T00:01:05.209Z,0
2018-04-29T00:02:14.042Z,0
2018-04-29T00:03:22.876Z,0
2018-04-29T00:04:31.708Z,0
2018-04-29T00:05:40.543Z,0
2018-04-29T00:06:49.374Z,0
2018-04-29T00:07:58.208Z,0
2018-04-29T00:09:07.043Z,0
2018-04-29T00:10:15.875Z,0
2018-04-29T00:11:24.714Z,0
2018-04-29T00:12:33.821Z,0
2018-04-29T00:13:42.933Z,0
2018-04-29T00:14:51.768Z,0
2018-04-29T00:16:00.602Z,0
2018-04-29T00:17:09.725Z,0
2018-04-29T00:18:18.592Z,0
2018-04-29T00:19:27.427Z,0
2018-04-29T00:20:36.263Z,0
2018-04-29T00:21:45.368Z,0
2018-04-29T00:22:54.201Z,0
2018-04-29T00:24:03.592Z,0
2018-04-29T00:25:12.425Z,0
2018-04-29T00:26:21.258Z,0
2018-04-29T00:27:30.092Z,0
2018-04-29T00:28:38.927Z,0
2018-04-29T00:29:47.911Z,0
2018-04-29T00:30:56.747Z,0
2018-04-29T00:32:05.580Z,0
2018-04-29T00:33:14.416Z,0
2018-04-29T00:34:23.246Z,0
2018-04-29T00:35:32.546Z,0
2018-04-29T00:36:41.380Z,0
2018-04-29T00:37:50.213Z,0
2018-04-29T00:38:59.049Z,0
2018-04-29T00:40:07.883Z,0
2018-04-29T00:41:16.718Z,0
2018-04-29T00:42:25.557Z,0
2018-04-29T00:43:34.393Z,0
2018-04-29T00:44:43.231Z,0
2018-04-29T00:45:52.058Z,0
2018-04-29T00:47:01.042Z,0
2018-04-29T00:48:09.877Z,0
2018-04-29T00:49:18.987Z,0
2018-04-29T00:50:27.814Z,0
2018-04-29T00:51:36.646Z,0
2018-04-29T00:52:45.634Z,0
2018-04-29T00:53:54.741Z,0
2018-04-29T00:55:04.126Z,0
2018-04-29T00:56:12.958Z,0
2018-04-29T00:57:21.790Z,0
2018-04-29T00:58:31.460Z,0
2018-04-29T00:59:40.293Z,0
2018-04-29T01:00:49.128Z,0
2018-04-29T01:01:57.965Z,0
2018-04-29T01:03:06.798Z,0
2018-04-29T01:04:15.957Z,0
2018-04-29T01:05:24.791Z,0
2018-04-29T01:06:33.624Z,0
2018-04-29T01:07:42.457Z,0
2018-04-29T01:08:51.290Z,0
2018-04-29T01:10:00.123Z,0
2018-04-29T01:11:09.241Z,0
2018-04-29T01:12:18.078Z,0
2018-04-29T01:13:26.915Z,0
2018-04-29T01:14:35.747Z,0
2018-04-29T01:15:44.685Z,0
2018-04-29T01:16:53.516Z,0
2018-04-29T01:18:02.349Z,0
2018-04-29T01:19:11.455Z,0
2018-04-29T01:20:20.288Z,0
2018-04-29T01:21:29.648Z,0
2018-04-29T01:22:38.482Z,0
2018-04-29T01:23:47.316Z,0
2018-04-29T01:24:56.158Z,0
2018-04-29T01:26:05.261Z,0
2018-04-29T01:27:14.520Z,0
2018-04-29T01:28:23.353Z,0
2018-04-29T01:29:32.186Z,0
2018-04-29T01:30:41.018Z,0
2018-04-29T01:31:49.854Z,0
2018-04-29T01:32:58.836Z,0
2018-04-29T01:34:07.666Z,0
2018-04-29T01:35:16.781Z,0
2018-04-29T01:36:25.614Z,0
2018-04-29T01:37:34.451Z,0
2018-04-29T01:38:43.330Z,0
2018-04-29T01:39:52.160Z,0
2018-04-29T01:41:01.320Z,0
2018-04-29T01:42:10.106Z,0
2018-04-29T01:43:18.939Z,0
2018-04-29T01:44:28.149Z,0
2018-04-29T01:45:36.982Z,0
2018-04-29T01:46:45.818Z,0
2018-04-29T01:47:54.925Z,0
2018-04-29T01:49:04.034Z,0
2018-04-29T01:50:13.446Z,0
2018-04-29T01:51:22.278Z,0
2018-04-29T01:52:31.111Z,0
2018-04-29T01:53:40.215Z,0
2018-04-29T01:54:49.051Z,0
2018-04-29T01:55:57.986Z,0
2018-04-29T01:57:07.092Z,0
2018-04-29T01:58:15.925Z,0
2018-04-29T01:59:24.756Z,0
2018-04-29T02:00:33.862Z,0
2018-04-29T02:01:43.125Z,0
2018-04-29T02:02:51.957Z,0
2018-04-29T02:04:01.071Z,0
2018-04-29T02:05:09.905Z,0
2018-04-29T02:06:18.738Z,0
2018-04-29T02:07:27.671Z,0
2018-04-29T02:08:36.780Z,0
2018-04-29T02:09:45.613Z,0
2018-04-29T02:10:54.449Z,0
2018-04-29T02:12:03.840Z,0
2018-04-29T02:13:12.766Z,0
2018-04-29T02:14:21.598Z,0
2018-04-29T02:15:30.435Z,0
2018-04-29T02:16:39.265Z,0
2018-04-29T02:17:48.098Z,0
2018-04-29T02:18:56.931Z,0
2018-04-29T02:20:06.038Z,0
2018-04-29T02:21:15.143Z,0
2018-04-29T02:22:23.976Z,0
2018-04-29T02:23:32.811Z,0
2018-04-29T02:24:42.221Z,0
2018-04-29T02:25:51.055Z,0
2018-04-29T02:26:59.889Z,0
2018-04-29T02:28:08.719Z,0
2018-04-29T02:29:17.827Z,0
2018-04-29T02:30:26.815Z,0
2018-04-29T02:31:35.647Z,0
2018-04-29T02:32:44.485Z,0
2018-04-29T02:33:53.322Z,0
2018-04-29T02:35:02.710Z,0
2018-04-29T02:36:11.939Z,0
2018-04-29T02:37:20.764Z,0
2018-04-29T02:38:29.977Z,0
2018-04-29T02:39:39.099Z,0
2018-04-29T02:40:48.507Z,0
2018-04-29T02:41:57.729Z,0
2018-04-29T02:43:06.852Z,0
2018-04-29T02:44:15.966Z,0
2018-04-29T02:45:25.077Z,0
2018-04-29T02:46:34.185Z,0
2018-04-29T02:47:43.022Z,0
2018-04-29T02:48:52.406Z,0
2018-04-29T02:50:01.516Z,0
2018-04-29T02:51:10.350Z,0
2018-04-29T02:52:19.184Z,0
2018-04-29T02:53:28.402Z,0
2018-04-29T02:54:37.242Z,0
2018-04-29T02:55:46.076Z,0
2018-04-29T02:56:55.196Z,0
2018-04-29T02:58:04.305Z,0
2018-04-29T02:59:13.986Z,0
2018-04-29T03:00:22.819Z,0
2018-04-29T03:01:31.932Z,0
2018-04-29T03:02:41.606Z,0
2018-04-29T03:03:50.722Z,0
2018-04-29T03:04:59.830Z,0
2018-04-29T03:06:08.660Z,0
2018-04-29T03:07:17.768Z,0
2018-04-29T03:08:26.603Z,0
2018-04-29T03:09:35.439Z,0
2018-04-29T03:10:45.020Z,0
2018-04-29T03:11:53.860Z,0
2018-04-29T03:13:02.967Z,0
2018-04-29T03:14:11.802Z,0
2018-04-29T03:15:20.913Z,0
2018-04-29T03:16:29.751Z,0
2018-04-29T03:17:39.134Z,0
2018-04-29T03:18:47.970Z,0
2018-04-29T03:19:57.075Z,0
2018-04-29T03:21:05.905Z,0
2018-04-29T03:22:14.888Z,0
2018-04-29T03:23:23.725Z,0
2018-04-29T03:24:32.554Z,0
2018-04-29T03:25:41.391Z,0
2018-04-29T03:26:50.222Z,4
2018-04-29T03:27:59.056Z,4
2018-04-29T03:29:07.889Z,4
2018-04-29T03:30:17.001Z,4
2018-04-29T03:31:26.662Z,0
2018-04-29T03:32:35.926Z,4
2018-04-29T03:33:44.909Z,4
2018-04-29T03:34:53.741Z,4
2018-04-29T03:36:02.572Z,8
2018-04-29T03:37:11.405Z,8
2018-04-29T03:38:20.515Z,12
2018-04-29T03:39:29.497Z,8
2018-04-29T03:40:38.330Z,12
2018-04-29T03:41:47.181Z,12
2018-04-29T03:42:56.563Z,16
2018-04-29T03:44:05.393Z,20
2018-04-29T03:45:14.479Z,24
2018-04-29T03:46:23.592Z,28
2018-04-29T03:47:32.428Z,36
2018-04-29T03:48:41.538Z,36
2018-04-29T03:49:50.368Z,40
2018-04-29T03:50:59.196Z,48
2018-04-29T03:52:08.028Z,52
2018-04-29T03:53:16.860Z,56
2018-04-29T03:54:25.972Z,64
2018-04-29T03:55:35.088Z,60
2018-04-29T03:56:44.023Z,64
2018-04-29T03:57:52.860Z,64
2018-04-29T03:59:01.690Z,72
2018-04-29T04:00:10.526Z,84
2018-04-29T04:01:19.355Z,96
2018-04-29T04:02:28.252Z,108
2018-04-29T04:03:37.361Z,120
2018-04-29T04:04:46.468Z,124
2018-04-29T04:05:55.303Z,136
2018-04-29T04:07:04.141Z,152
2018-04-29T04:08:13.028Z,168
2018-04-29T04:09:22.135Z,184
2018-04-29T04:10:30.969Z,204
2018-04-29T04:11:39.801Z,216
2018-04-29T04:12:48.640Z,236
2018-04-29T04:13:57.898Z,256
2018-04-29T04:15:06.731Z,272
2018-04-29T04:16:15.566Z,288
2018-04-29T04:17:24.681Z,304
2018-04-29T04:18:33.514Z,328
2018-04-29T04:19:42.596Z,356
2018-04-29T04:20:51.440Z,388
2018-04-29T04:22:00.551Z,432
2018-04-29T04:23:09.659Z,464
2018-04-29T04:24:18.771Z,472
2018-04-29T04:25:27.903Z,476
2018-04-29T04:26:36.742Z,484
2018-04-29T04:27:45.570Z,500
2018-04-29T04:28:54.502Z,524
2018-04-29T04:30:03.609Z,564
2018-04-29T04:31:12.443Z,604
2018-04-29T04:32:21.285Z,628
2018-04-29T04:33:30.116Z,648
2018-04-29T04:34:39.217Z,672
2018-04-29T04:35:48.326Z,696
2018-04-29T04:36:57.461Z,728
2018-04-29T04:38:06.295Z,764
2018-04-29T04:39:15.127Z,808
2018-04-29T04:40:23.962Z,868
2018-04-29T04:41:33.076Z,900
2018-04-29T04:42:42.437Z,892
2018-04-29T04:43:51.271Z,844
2018-04-29T04:45:00.108Z,808
2018-04-29T04:46:08.943Z,808
2018-04-29T04:47:18.049Z,848
2018-04-29T04:48:26.885Z,896
2018-04-29T04:49:35.722Z,948
2018-04-29T04:50:44.628Z,984
2018-04-29T04:51:53.812Z,1004
2018-04-29T04:53:02.646Z,1004
2018-04-29T04:54:11.480Z,1000
2018-04-29T04:55:20.867Z,1016
2018-04-29T04:56:29.979Z,1048
2018-04-29T04:57:39.133Z,1096
2018-04-29T04:58:47.970Z,1160
2018-04-29T04:59:56.851Z,1212
2018-04-29T05:01:05.685Z,1276
2018-04-29T05:02:14.515Z,1320
2018-04-29T05:03:23.625Z,1364
2018-04-29T05:04:32.457Z,1376
2018-04-29T05:05:41.590Z,1408
2018-04-29T05:06:50.427Z,1420
2018-04-29T05:07:59.260Z,1424
2018-04-29T05:09:08.107Z,1484
2018-04-29T05:10:17.213Z,1596
2018-04-29T05:11:26.198Z,1684
2018-04-29T05:12:35.029Z,1744
2018-04-29T05:13:44.261Z,1752
2018-04-29T05:14:53.376Z,1752
2018-04-29T05:16:02.213Z,1784
2018-04-29T05:17:11.324Z,1788
2018-04-29T05:18:20.432Z,1800
2018-04-29T05:19:29.543Z,1752
2018-04-29T05:20:38.384Z,1836
2018-04-29T05:21:47.486Z,2152
2018-04-29T05:22:56.371Z,2476
2018-04-29T05:24:05.477Z,2580
2018-04-29T05:25:14.311Z,2520
2018-04-29T05:26:23.145Z,2364
2018-04-29T05:27:31.978Z,2192
2018-04-29T05:28:40.917Z,2024
2018-04-29T05:29:49.749Z,1920
2018-04-29T05:30:58.864Z,2032
2018-04-29T05:32:07.978Z,2124
2018-04-29T05:33:16.816Z,2056
2018-04-29T05:34:25.748Z,1876
2018-04-29T05:35:34.590Z,1748
2018-04-29T05:36:43.691Z,1712
2018-04-29T05:37:52.527Z,1704
2018-04-29T05:39:01.359Z,1732
2018-04-29T05:40:10.765Z,1748
2018-04-29T05:41:19.598Z,1764
2018-04-29T05:42:28.711Z,1820
2018-04-29T05:43:37.548Z,1864
2018-04-29T05:44:46.383Z,1936
2018-04-29T05:45:55.518Z,2120
2018-04-29T05:47:04.353Z,2352
2018-04-29T05:48:13.462Z,2524
2018-04-29T05:49:22.298Z,2556
2018-04-29T05:50:31.412Z,2436
2018-04-29T05:51:40.494Z,2276
2018-04-29T05:52:49.604Z,2204
2018-04-29T05:53:58.438Z,2156
2018-04-29T05:55:07.554Z,2100
2018-04-29T05:56:16.386Z,1976
2018-04-29T05:57:25.322Z,1848
2018-04-29T05:58:34.156Z,1768
2018-04-29T05:59:42.997Z,1756
2018-04-29T06:00:51.826Z,1784
2018-04-29T06:02:00.660Z,1832
2018-04-29T06:03:09.744Z,1868
2018-04-29T06:04:18.582Z,1908
2018-04-29T06:05:27.412Z,1948
2018-04-29T06:06:36.351Z,1960
2018-04-29T06:07:45.477Z,1952
2018-04-29T06:08:54.309Z,1948
2018-04-29T06:10:03.144Z,1928
2018-04-29T06:11:12.526Z,1892
2018-04-29T06:12:21.374Z,1908
2018-04-29T06:13:30.206Z,2024
2018-04-29T06:14:39.469Z,2180
2018-04-29T06:15:48.302Z,2312
2018-04-29T06:16:57.139Z,2416
2018-04-29T06:18:06.245Z,2492
2018-04-29T06:19:15.353Z,2568
2018-04-29T06:20:24.658Z,2596
2018-04-29T06:21:33.696Z,2560
2018-04-29T06:22:42.529Z,2484
2018-04-29T06:23:51.361Z,2392
2018-04-29T06:25:00.198Z,2304
2018-04-29T06:26:09.207Z,2172
2018-04-29T06:27:18.683Z,1964
2018-04-29T06:28:27.515Z,1880
2018-04-29T06:29:36.349Z,1884
2018-04-29T06:30:45.182Z,1872
2018-04-29T06:31:54.544Z,1848
2018-04-29T06:33:03.285Z,1868
2018-04-29T06:34:12.122Z,1872
2018-04-29T06:35:20.954Z,1888
2018-04-29T06:36:30.081Z,1936
2018-04-29T06:37:38.965Z,1940
2018-04-29T06:38:47.817Z,1956
2018-04-29T06:39:57.311Z,1956
2018-04-29T06:41:06.148Z,1972
2018-04-29T06:42:14.980Z,1984
2018-04-29T06:43:23.968Z,2008
2018-04-29T06:44:33.075Z,2012
2018-04-29T06:45:42.191Z,1992
2018-04-29T06:46:51.415Z,2060
2018-04-29T06:48:00.478Z,2092
2018-04-29T06:49:09.314Z,2144
2018-04-29T06:50:18.149Z,2224
2018-04-29T06:51:26.986Z,2332
2018-04-29T06:52:36.094Z,2504
2018-04-29T06:53:44.932Z,2792
2018-04-29T06:54:54.099Z,3128
2018-04-29T06:56:02.941Z,3268
2018-04-29T06:57:11.779Z,3428
2018-04-29T06:58:20.612Z,3484
2018-04-29T06:59:29.446Z,3580
2018-04-29T07:00:38.387Z,3660
2018-04-29T07:01:47.500Z,3776
2018-04-29T07:02:56.334Z,3640
2018-04-29T07:04:05.445Z,3500
2018-04-29T07:05:14.278Z,3396
2018-04-29T07:06:23.111Z,3312
2018-04-29T07:07:31.947Z,3280
2018-04-29T07:08:40.784Z,3356
2018-04-29T07:09:49.626Z,3460
2018-04-29T07:10:58.737Z,3540
2018-04-29T07:12:07.726Z,3644
2018-04-29T07:13:16.563Z,3768
2018-04-29T07:14:25.398Z,3816
2018-04-29T07:15:34.235Z,3776
2018-04-29T07:16:43.624Z,3736
2018-04-29T07:17:52.604Z,3604
2018-04-29T07:19:01.716Z,3588
2018-04-29T07:20:10.555Z,3492
2018-04-29T07:21:19.392Z,3304
2018-04-29T07:22:28.226Z,3200
2018-04-29T07:23:37.060Z,3176
2018-04-29T07:24:45.894Z,3160
2018-04-29T07:25:54.730Z,3064
2018-04-29T07:27:03.852Z,2892
2018-04-29T07:28:12.687Z,2732
2018-04-29T07:29:21.621Z,2616
2018-04-29T07:30:30.456Z,2512
2018-04-29T07:31:39.300Z,2424
2018-04-29T07:32:48.132Z,2380
2018-04-29T07:33:56.973Z,2396
2018-04-29T07:35:06.499Z,2456
2018-04-29T07:36:15.883Z,2464
2018-04-29T07:37:24.715Z,2412
2018-04-29T07:38:33.893Z,2348
2018-04-29T07:39:42.816Z,2256
2018-04-29T07:40:51.721Z,2188
2018-04-29T07:42:00.551Z,2164
2018-04-29T07:43:09.386Z,2148
2018-04-29T07:44:18.231Z,2144
2018-04-29T07:45:27.061Z,2144
2018-04-29T07:46:36.312Z,2152
2018-04-29T07:47:45.146Z,2180
2018-04-29T07:48:54.255Z,2188
2018-04-29T07:50:03.088Z,2216
2018-04-29T07:51:12.223Z,2244
2018-04-29T07:52:21.172Z,2232
2018-04-29T07:53:30.309Z,2184
2018-04-29T07:54:39.421Z,2176
2018-04-29T07:55:48.257Z,2188
2018-04-29T07:56:57.644Z,2200
2018-04-29T07:58:06.857Z,2216
2018-04-29T07:59:15.693Z,2208
2018-04-29T08:00:24.525Z,2220
2018-04-29T08:01:33.361Z,2232
2018-04-29T08:02:42.474Z,2264
2018-04-29T08:03:51.586Z,2296
2018-04-29T08:05:00.420Z,2292
2018-04-29T08:06:09.256Z,2296
2018-04-29T08:07:18.088Z,2340
2018-04-29T08:08:26.923Z,2376
2018-04-29T08:09:35.758Z,2428
2018-04-29T08:10:44.875Z,2492
2018-04-29T08:11:53.709Z,2556
2018-04-29T08:13:02.545Z,2532
2018-04-29T08:14:11.381Z,2632
2018-04-29T08:15:20.556Z,2740
2018-04-29T08:16:29.352Z,3020
2018-04-29T08:17:38.184Z,3340
2018-04-29T08:18:47.301Z,3908
2018-04-29T08:19:56.409Z,4668
2018-04-29T08:21:05.395Z,5288
2018-04-29T08:22:14.230Z,6088
2018-04-29T08:23:23.061Z,6536
2018-04-29T08:24:31.909Z,6796
2018-04-29T08:25:40.737Z,6900
2018-04-29T08:26:49.677Z,7068
2018-04-29T08:27:58.521Z,6820
2018-04-29T08:29:07.637Z,6376
2018-04-29T08:30:16.481Z,5924
2018-04-29T08:31:25.314Z,5428
2018-04-29T08:32:34.324Z,4952
2018-04-29T08:34:15.491Z,4320
2018-04-29T08:35:24.326Z,3872
2018-04-29T08:36:33.486Z,3484
2018-04-29T08:37:42.472Z,3376
2018-04-29T08:38:51.307Z,3424
2018-04-29T08:40:00.143Z,3436
2018-04-29T08:41:08.981Z,3536
2018-04-29T08:42:17.818Z,3584
2018-04-29T08:43:26.654Z,3520
2018-04-29T08:44:35.491Z,4036
2018-04-29T08:45:44.328Z,4696
2018-04-29T08:46:53.165Z,5592
2018-04-29T08:48:02.001Z,6464
2018-04-29T08:49:10.990Z,6528
2018-04-29T08:50:19.825Z,6812
2018-04-29T08:51:28.665Z,6856
2018-04-29T08:52:37.779Z,6340
2018-04-29T08:53:46.614Z,6336
2018-04-29T08:54:55.613Z,6068
2018-04-29T08:56:04.503Z,5372
2018-04-29T08:57:13.668Z,5056
2018-04-29T08:58:22.505Z,4912
2018-04-29T08:59:31.343Z,5284
2018-04-29T09:00:40.379Z,5972
2018-04-29T09:01:49.216Z,6688
2018-04-29T09:02:58.055Z,6652
2018-04-29T09:04:06.894Z,6620
2018-04-29T09:05:15.729Z,6580
2018-04-29T09:06:24.570Z,6684
2018-04-29T09:07:33.407Z,6736
2018-04-29T09:08:42.521Z,6944
2018-04-29T09:09:51.633Z,7668
2018-04-29T09:11:00.752Z,8584
2018-04-29T09:12:09.925Z,9356
2018-04-29T09:13:18.763Z,9660
2018-04-29T09:14:27.599Z,9156
2018-04-29T09:15:36.746Z,8400
2018-04-29T09:16:46.140Z,7708
2018-04-29T09:17:55.454Z,7340
2018-04-29T09:19:04.293Z,7728
2018-04-29T09:20:13.131Z,8720
2018-04-29T09:21:21.969Z,9552
2018-04-29T09:22:30.806Z,10508
2018-04-29T09:23:39.645Z,11628
2018-04-29T09:24:48.757Z,11516
2018-04-29T09:25:57.616Z,10388
2018-04-29T09:27:06.725Z,10148
2018-04-29T09:28:15.560Z,9844
2018-04-29T09:29:24.397Z,9688
2018-04-29T09:30:33.234Z,9828
2018-04-29T09:31:42.073Z,9872
2018-04-29T09:32:50.914Z,10004
2018-04-29T09:33:59.753Z,10440
2018-04-29T09:35:08.593Z,10396
2018-04-29T09:36:17.433Z,10608
2018-04-29T09:37:26.270Z,10892
2018-04-29T09:38:35.107Z,11604
2018-04-29T09:39:43.945Z,11940
2018-04-29T09:40:53.060Z,12312
2018-04-29T09:42:02.173Z,12472
2018-04-29T09:43:11.013Z,12608
2018-04-29T09:44:19.857Z,12900
2018-04-29T09:45:28.974Z,13076
2018-04-29T09:46:38.191Z,12924
2018-04-29T09:47:47.030Z,12380
2018-04-29T09:48:55.869Z,11712
2018-04-29T09:50:04.707Z,11272
2018-04-29T09:51:13.549Z,11116
2018-04-29T09:52:22.539Z,11112
2018-04-29T09:53:31.374Z,11024
2018-04-29T09:54:40.216Z,11436
2018-04-29T09:55:49.058Z,12456
2018-04-29T09:56:57.900Z,13076
2018-04-29T09:58:07.411Z,12508
2018-04-29T09:59:16.255Z,11600
2018-04-29T10:00:25.366Z,10952
2018-04-29T10:01:34.207Z,11744
2018-04-29T10:02:43.322Z,11704
2018-04-29T10:03:52.684Z,11456
2018-04-29T10:05:01.526Z,11636
2018-04-29T10:06:10.638Z,11268
2018-04-29T10:07:19.478Z,11824
2018-04-29T10:08:28.318Z,12664
2018-04-29T10:09:37.645Z,13540
2018-04-29T10:10:46.774Z,12248
2018-04-29T10:11:55.617Z,10392
2018-04-29T10:13:04.456Z,9792
2018-04-29T10:14:13.295Z,9700
2018-04-29T10:15:22.388Z,9152
2018-04-29T10:16:31.226Z,7760
2018-04-29T10:17:40.068Z,6020
2018-04-29T10:18:48.992Z,5428
2018-04-29T10:19:58.148Z,5632
2018-04-29T10:21:06.994Z,5496
2018-04-29T10:22:16.103Z,5568
2018-04-29T10:23:24.948Z,5552
2018-04-29T10:24:33.851Z,5664
2018-04-29T10:25:42.622Z,6172
2018-04-29T10:26:51.710Z,7056
2018-04-29T10:28:00.549Z,7540
2018-04-29T10:29:09.386Z,7280
2018-04-29T10:30:18.781Z,7492
2018-04-29T10:31:27.625Z,8464
2018-04-29T10:32:36.864Z,8352
2018-04-29T10:33:45.711Z,7288
2018-04-29T10:34:54.545Z,5588
2018-04-29T10:36:03.663Z,4928
2018-04-29T10:37:12.501Z,4528
2018-04-29T10:38:21.345Z,4600
2018-04-29T10:39:30.179Z,4868
2018-04-29T10:40:39.296Z,5668
2018-04-29T10:41:48.138Z,6192
2018-04-29T10:42:56.976Z,5824
2018-04-29T10:44:05.912Z,5420
2018-04-29T10:45:15.023Z,5176
2018-04-29T10:46:23.863Z,5284
2018-04-29T10:47:32.974Z,5296
2018-04-29T10:48:41.814Z,4740
2018-04-29T10:49:51.033Z,4108
2018-04-29T10:50:59.869Z,3184
2018-04-29T10:52:08.992Z,2596
2018-04-29T10:53:17.830Z,2504
2018-04-29T10:54:26.666Z,2400
2018-04-29T10:55:35.655Z,3188
2018-04-29T10:56:44.810Z,5116
2018-04-29T10:57:53.884Z,6680
2018-04-29T10:59:02.722Z,6568
2018-04-29T11:00:11.836Z,6068
2018-04-29T11:01:20.722Z,5780
2018-04-29T11:02:29.557Z,5344
2018-04-29T11:03:38.671Z,4320
2018-04-29T11:04:47.507Z,3832
2018-04-29T11:05:56.348Z,3980
2018-04-29T11:07:05.188Z,3904
2018-04-29T11:08:14.028Z,3520
2018-04-29T11:09:22.862Z,3396
2018-04-29T11:10:31.979Z,3508
2018-04-29T11:11:41.137Z,4000
2018-04-29T11:12:49.924Z,5288
2018-04-29T11:13:58.763Z,6784
2018-04-29T11:15:07.602Z,6624
2018-04-29T11:16:16.440Z,6100
2018-04-29T11:17:25.278Z,7632
2018-04-29T11:18:34.267Z,10868
2018-04-29T11:19:43.380Z,12720
2018-04-29T11:20:52.217Z,12372
2018-04-29T11:22:01.060Z,10020
2018-04-29T11:23:09.896Z,7904
2018-04-29T11:24:18.734Z,6328
2018-04-29T11:25:27.574Z,6316
2018-04-29T11:26:36.415Z,7472
2018-04-29T11:27:45.255Z,8356
2018-04-29T11:28:54.090Z,8772
2018-04-29T11:30:03.356Z,8480
2018-04-29T11:31:12.195Z,8356
2018-04-29T11:32:21.032Z,8588
2018-04-29T11:33:30.148Z,7484
2018-04-29T11:34:39.260Z,7540
2018-04-29T11:35:48.098Z,9676
2018-04-29T11:36:56.941Z,11140
2018-04-29T11:38:06.057Z,9860
2018-04-29T11:39:14.896Z,8616
2018-04-29T11:40:23.794Z,7272
2018-04-29T11:41:32.724Z,7268
2018-04-29T11:42:41.836Z,7640
2018-04-29T11:43:50.672Z,7684
2018-04-29T11:45:00.061Z,8284
2018-04-29T11:46:08.900Z,9540
2018-04-29T11:47:18.037Z,10688
2018-04-29T11:48:27.151Z,11292
2018-04-29T11:49:36.268Z,11348
2018-04-29T11:50:45.105Z,12036
2018-04-29T11:51:53.949Z,13184
2018-04-29T11:53:02.780Z,16288
2018-04-29T11:54:11.616Z,15176
2018-04-29T11:55:20.456Z,11632
2018-04-29T11:56:29.298Z,8888
2018-04-29T11:57:38.137Z,7412
2018-04-29T11:58:47.314Z,6068
2018-04-29T11:59:56.429Z,5184
2018-04-29T12:01:05.273Z,5420
2018-04-29T12:02:14.383Z,6020
2018-04-29T12:03:23.222Z,6196
2018-04-29T12:04:32.486Z,5556
2018-04-29T12:05:41.376Z,4320
2018-04-29T12:06:50.214Z,4240
2018-04-29T12:07:59.054Z,4436
2018-04-29T12:09:07.897Z,4340
2018-04-29T12:10:17.111Z,4652
2018-04-29T12:11:25.949Z,4940
2018-04-29T12:12:34.787Z,4688
2018-04-29T12:13:43.625Z,4232
2018-04-29T12:14:52.467Z,4228
2018-04-29T12:16:01.302Z,5364
2018-04-29T12:17:10.414Z,6988
2018-04-29T12:18:19.257Z,8064
2018-04-29T12:19:28.092Z,8940
2018-04-29T12:20:37.204Z,8880
2018-04-29T12:21:46.142Z,9896
2018-04-29T12:22:55.256Z,9568
2018-04-29T12:24:04.373Z,7512
2018-04-29T12:25:13.212Z,6104
2018-04-29T12:26:22.051Z,5368
2018-04-29T12:27:31.165Z,5952
2018-04-29T12:28:40.002Z,8248
2018-04-29T12:29:49.120Z,12020
2018-04-29T12:30:57.957Z,12028
2018-04-29T12:32:06.802Z,13104
2018-04-29T12:33:15.924Z,12964
2018-04-29T12:34:24.763Z,18976
2018-04-29T12:35:33.606Z,18464
2018-04-29T12:36:42.718Z,18016
2018-04-29T12:37:51.559Z,36736
2018-04-29T12:39:00.696Z,51008
2018-04-29T12:40:09.810Z,48192
2018-04-29T12:41:18.648Z,66368
2018-04-29T12:42:27.489Z,71648
2018-04-29T12:43:36.327Z,56352
2018-04-29T12:44:45.169Z,41408
2018-04-29T12:45:54.006Z,37760
2018-04-29T12:47:02.846Z,29248
2018-04-29T12:48:11.962Z,23616
2018-04-29T12:49:20.806Z,19808
2018-04-29T12:50:29.752Z,18560
2018-04-29T12:51:38.592Z,17824
2018-04-29T12:52:47.437Z,14044
2018-04-29T12:53:56.551Z,12596
2018-04-29T12:55:05.393Z,15500
2018-04-29T12:56:14.238Z,16320
2018-04-29T12:57:23.081Z,22720
2018-04-29T12:58:31.924Z,42144
2018-04-29T12:59:40.764Z,19744
2018-04-29T13:00:49.881Z,20992
2018-04-29T13:01:58.873Z,39680
2018-04-29T13:03:07.991Z,26144
2018-04-29T13:04:16.831Z,28576
2018-04-29T13:05:25.953Z,40128
2018-04-29T13:06:34.798Z,81568
2018-04-29T13:07:43.971Z,35616
2018-04-29T13:08:52.811Z,74304
2018-04-29T13:10:01.656Z,79040
2018-04-29T13:11:10.500Z,73792
2018-04-29T13:12:19.346Z,34112
2018-04-29T13:13:28.390Z,29280
2018-04-29T13:14:37.243Z,20640
2018-04-29T13:15:46.362Z,26272
2018-04-29T13:16:55.208Z,24832
2018-04-29T13:18:04.331Z,42240
2018-04-29T13:19:13.576Z,32544
2018-04-29T13:20:22.418Z,43424
2018-04-29T13:21:31.265Z,26528
2018-04-29T13:22:40.114Z,15232
2018-04-29T13:23:48.960Z,9752
2018-04-29T13:24:58.131Z,11140
2018-04-29T13:26:06.977Z,9300
2018-04-29T13:27:15.823Z,14296
2018-04-29T13:28:24.670Z,13068
2018-04-29T13:29:33.522Z,10540
2018-04-29T13:30:43.279Z,9268
2018-04-29T13:31:52.125Z,8708
2018-04-29T13:33:00.970Z,8936
2018-04-29T13:34:09.815Z,9360
2018-04-29T13:35:18.659Z,25504
2018-04-29T13:36:27.602Z,22208
2018-04-29T13:37:36.446Z,30720
2018-04-29T13:38:45.291Z,26048
2018-04-29T13:39:54.456Z,31296
2018-04-29T13:41:03.299Z,40320
2018-04-29T13:42:12.764Z,32704
2018-04-29T13:43:22.174Z,17696
2018-04-29T13:44:31.294Z,74912
2018-04-29T13:45:40.137Z,73088
2018-04-29T13:46:48.985Z,50688
2018-04-29T13:47:58.485Z,54176
2018-04-29T13:49:07.613Z,25248
2018-04-29T13:50:16.459Z,44448
2018-04-29T13:51:25.305Z,33888
2018-04-29T13:52:34.160Z,26528
2018-04-29T13:53:43.197Z,38592
2018-04-29T13:54:52.050Z,22400
2018-04-29T13:56:00.891Z,13880
2018-04-29T13:57:09.744Z,11692
2018-04-29T13:58:18.591Z,8556
2018-04-29T13:59:27.584Z,10784
2018-04-29T14:00:36.432Z,15108
2018-04-29T14:01:45.916Z,23200
2018-04-29T14:02:54.676Z,28288
2018-04-29T14:04:03.798Z,37120
2018-04-29T14:05:12.747Z,17440
2018-04-29T14:06:21.864Z,30912
2018-04-29T14:07:30.709Z,16256
2018-04-29T14:08:40.104Z,13612
2018-04-29T14:09:48.966Z,12124
2018-04-29T14:10:58.110Z,11088
2018-04-29T14:12:06.958Z,10480
2018-04-29T14:13:16.082Z,10428
2018-04-29T14:14:25.212Z,10980
2018-04-29T14:15:34.047Z,17568
2018-04-29T14:16:43.091Z,24704
2018-04-29T14:17:51.933Z,70784
2018-04-29T14:19:01.058Z,72800
2018-04-29T14:20:10.187Z,69984
2018-04-29T14:21:19.032Z,61088
2018-04-29T14:22:27.877Z,39424
2018-04-29T14:23:36.721Z,23712
2018-04-29T14:24:45.570Z,60704
2018-04-29T14:25:54.419Z,28960
2018-04-29T14:27:03.542Z,21088
2018-04-29T14:28:12.540Z,71296
2018-04-29T14:29:21.385Z,70752
2018-04-29T14:30:30.233Z,71328
2018-04-29T14:31:39.082Z,67264
2018-04-29T14:32:47.930Z,70944
2018-04-29T14:33:56.882Z,71520
2018-04-29T14:35:05.731Z,70528
2018-04-29T14:36:14.580Z,69600
2018-04-29T14:37:23.433Z,67936
2018-04-29T14:38:32.278Z,69568
2018-04-29T14:39:41.229Z,70912
2018-04-29T14:40:50.363Z,71552
2018-04-29T14:41:59.492Z,71296
2018-04-29T14:43:08.348Z,73312
2018-04-29T14:44:17.201Z,71296
2018-04-29T14:45:26.432Z,52032
2018-04-29T14:46:35.282Z,22784
2018-04-29T14:47:44.138Z,17952
2018-04-29T14:48:52.985Z,15680
2018-04-29T14:50:02.112Z,11820
2018-04-29T14:51:11.113Z,10164
2018-04-29T14:52:19.965Z,8908
2018-04-29T14:53:28.817Z,7940
2018-04-29T14:54:37.670Z,7608
2018-04-29T14:55:46.520Z,7580
2018-04-29T14:56:55.469Z,9096
2018-04-29T14:58:04.318Z,10644
2018-04-29T14:59:13.163Z,22720
2018-04-29T15:00:22.009Z,9192
2018-04-29T15:01:31.296Z,9604
2018-04-29T15:02:40.625Z,18176
2018-04-29T15:03:49.746Z,63264
2018-04-29T15:04:58.594Z,67008
2018-04-29T15:06:07.721Z,70944
2018-04-29T15:07:16.575Z,68544
2018-04-29T15:08:25.675Z,19968
2018-04-29T15:09:34.522Z,31840
2018-04-29T15:10:43.371Z,21632
2018-04-29T15:11:52.216Z,53216
2018-04-29T15:13:01.342Z,23936
2018-04-29T15:14:10.612Z,46976
2018-04-29T15:15:19.738Z,68320
2018-04-29T15:16:28.584Z,43744
2018-04-29T15:17:37.434Z,43456
2018-04-29T15:18:46.286Z,16192
2018-04-29T15:19:55.561Z,13816
2018-04-29T15:21:04.405Z,16672
2018-04-29T15:22:13.245Z,49984
2018-04-29T15:23:22.095Z,12560
2018-04-29T15:24:30.944Z,21952
2018-04-29T15:25:39.807Z,9536
2018-04-29T15:26:48.914Z,7320
2018-04-29T15:27:58.036Z,5984
2018-04-29T15:29:07.159Z,5084
2018-04-29T15:30:16.005Z,6248
2018-04-29T15:31:24.849Z,8008
2018-04-29T15:32:33.693Z,7832
2018-04-29T15:33:42.589Z,6496
2018-04-29T15:34:51.431Z,5896
2018-04-29T15:36:00.277Z,5744